Ana Sayfa
METAR-TAF:

METAR-TAF

Havaalanları :

Sherman / Denison, Teksas, Amerika Birleşik Devletleri

Enlem: 33-43N, Boylam: 096-40W, yükseklik: 228 m

Güncel hava durumu gözlemi

Rapor saat 01:55 UTC de 31 dakika önce yapıldı.
Rüzgar güney/güneydoğudan 8 kt
Sıcaklık 10°C
Nem 37%
Basınç 1023 hPa
Görüş mesafesi: 16.1 km
Açık gökyüzü

METAR: KGYI 280155Z AUTO 16008KT 10SM CLR 10/M04 A3022 RMK AO2 T00951036

Saat: 20:26 (02:26 UTC)


TAF: eksik

4.000'den fazla havaalanı için hava durumu gözlemleri ve tahminleri (METAR ve TAF raporları).

Kullanılabilir istasyonlar harita üzerinde sarı ve kırmızı noktalarla gösterilir.

İstasyonun adını görmek için fareyi noktanın üzerinde gezdirin.

Sonrasında hava gözlem ve tahminlerini görmek için tıklayın.

Haritayı değiştirmek için: yaklaştırmak için siyah artı işaretli yeşil düğmeye ve uzaklaştırmak için de eksi işaretli düğmeye hızla tıklayın; bitişik haritalar için yeşil okları kullanın.


METAR-TAF: